Time;durP1;ratioP1;P1;durP2;ratioP2;P2;SDS_P1;SDS_P2;PMS_P1;PMS_P2;Temp;Humidity;BMP_temperature;BMP_pressure;BME280_temperature;BME280_humidity;BME280_pressure;Samples;Min_cycle;Max_cycle;Signal;HPM_P1;HPM_P2
2022/09/14 00:01:39;;;;;;;3.47;1.75;;;;;;;;;;5001410;28;20068;-84
2022/09/14 00:04:10;;;;;;;4.95;2.75;;;;;;;;;;5017683;28;20499;-85
2022/09/14 00:06:36;;;;;;;5.93;2.30;;;;;;;;;;5017805;28;20033;-85
2022/09/14 00:09:01;;;;;;;4.82;2.30;;;;;;;;;;5017739;28;20037;-84
2022/09/14 00:11:29;;;;;;;3.38;2.38;;;;;;;;;;5017618;28;20041;-85
2022/09/14 00:13:56;;;;;;;3.65;2.00;;;;;;;;;;5017452;28;20029;-85
2022/09/14 00:16:29;;;;;;;3.53;2.30;;;;;;;;;;4989516;28;20034;-84
2022/09/14 00:18:56;;;;;;;;;;;;;;;;;;4995669;28;20048;-84
2022/09/14 00:21:21;;;;;;;3.22;1.90;;;;;;;;;;5010782;28;19913;-85
2022/09/14 00:23:47;;;;;;;3.45;1.73;;;;;;;;;;4994585;28;20056;-85
2022/09/14 00:26:15;;;;;;;5.15;1.92;;;;;;;;;;4978527;28;20033;-85
2022/09/14 00:28:42;;;;;;;3.55;2.05;;;;;;;;;;4978664;28;20034;-84
2022/09/14 00:31:09;;;;;;;3.80;2.00;;;;;;;;;;4998195;28;20033;-84
2022/09/14 00:33:35;;;;;;;2.38;1.83;;;;;;;;;;4997943;28;20104;-85
2022/09/14 00:36:08;;;;;;;4.13;2.10;;;;;;;;;;4981579;28;20426;-85
2022/09/14 00:38:34;;;;;;;3.60;1.90;;;;;;;;;;4981262;28;20458;-85
2022/09/14 00:41:01;;;;;;;3.80;2.08;;;;;;;;;;4965738;28;20087;-85
2022/09/14 00:43:28;;;;;;;3.80;2.30;;;;;;;;;;5013792;28;20034;-84
2022/09/14 00:45:53;;;;;;;3.25;1.73;;;;;;;;;;4997554;28;20033;-84
2022/09/14 00:48:19;;;;;;;4.57;2.22;;;;;;;;;;4997409;28;20048;-85
2022/09/14 00:50:45;;;;;;;4.78;1.90;;;;;;;;;;4997505;28;20408;-85
2022/09/14 00:53:10;;;;;;;3.33;1.90;;;;;;;;;;4997555;28;20037;-83
2022/09/14 00:55:37;;;;;;;3.55;1.77;;;;;;;;;;4997667;28;20036;-84
2022/09/14 00:58:02;;;;;;;3.13;1.80;;;;;;;;;;5013737;28;20046;-84
2022/09/14 01:00:29;;;;;;;2.97;1.73;;;;;;;;;;5013726;28;20033;-84
2022/09/14 01:02:54;;;;;;;4.93;1.88;;;;;;;;;;4997521;28;20415;-85
2022/09/14 01:05:26;;;;;;;3.38;1.60;;;;;;;;;;4997147;28;20045;-84
2022/09/14 01:08:00;;;;;;;3.75;1.70;;;;;;;;;;4997322;28;20448;-84
2022/09/14 01:10:28;;;;;;;4.28;2.30;;;;;;;;;;5013167;28;20041;-84
2022/09/14 01:13:21;;;;;;;4.40;2.22;;;;;;;;;;5013860;28;20492;-85
2022/09/14 01:15:58;;;;;;;2.92;1.75;;;;;;;;;;4997550;28;20029;-85
2022/09/14 01:18:36;;;;;;;3.70;1.88;;;;;;;;;;4998451;28;20037;-85
2022/09/14 01:21:17;;;;;;;3.38;1.40;;;;;;;;;;4997900;28;20021;-84
2022/09/14 01:23:59;;;;;;;2.72;1.40;;;;;;;;;;4998295;28;20565;-84
2022/09/14 01:27:02;;;;;;;3.65;1.77;;;;;;;;;;5001513;28;20033;-85
2022/09/14 01:29:50;;;;;;;3.67;1.98;;;;;;;;;;5033878;28;20512;-84
2022/09/14 01:32:23;;;;;;;3.28;1.58;;;;;;;;;;4981606;28;20128;-84
2022/09/14 01:35:00;;;;;;;2.60;1.50;;;;;;;;;;4998139;28;20064;-84
2022/09/14 01:37:32;;;;;;;3.05;1.70;;;;;;;;;;5007412;28;20472;-84
2022/09/14 01:40:09;;;;;;;3.08;1.58;;;;;;;;;;5000709;28;20044;-85
2022/09/14 01:42:34;;;;;;;3.83;2.00;;;;;;;;;;4978876;28;20412;-85
2022/09/14 01:45:01;;;;;;;3.00;1.85;;;;;;;;;;5017277;28;20049;-84
2022/09/14 01:47:30;;;;;;;3.03;1.73;;;;;;;;;;5001009;28;20068;-85
2022/09/14 01:50:06;;;;;;;4.80;1.77;;;;;;;;;;5000189;28;20128;-84
2022/09/14 01:52:48;;;;;;;2.25;1.20;;;;;;;;;;5032901;28;20026;-83
2022/09/14 01:55:19;;;;;;;4.57;1.80;;;;;;;;;;5016807;28;20061;-84
2022/09/14 01:57:53;;;;;;;3.58;1.70;;;;;;;;;;5016730;28;20029;-84
2022/09/14 02:00:20;;;;;;;2.38;1.42;;;;;;;;;;5015643;28;20037;-84
2022/09/14 02:02:53;;;;;;;2.38;1.33;;;;;;;;;;5016524;28;20033;-84
2022/09/14 02:05:22;;;;;;;2.33;1.20;;;;;;;;;;4981084;28;20073;-84
2022/09/14 02:07:48;;;;;;;4.07;1.75;;;;;;;;;;4996839;28;20034;-84
2022/09/14 02:10:14;;;;;;;3.33;1.83;;;;;;;;;;4980626;28;20033;-84
2022/09/14 02:12:40;;;;;;;2.28;1.23;;;;;;;;;;4981106;28;20030;-85
2022/09/14 02:15:06;;;;;;;3.08;1.30;;;;;;;;;;4980777;28;20397;-85
2022/09/14 02:17:33;;;;;;;3.33;1.42;;;;;;;;;;4980829;28;20066;-85
2022/09/14 02:19:59;;;;;;;2.90;1.63;;;;;;;;;;4980399;28;20471;-84
2022/09/14 02:22:25;;;;;;;2.80;1.60;;;;;;;;;;4980858;28;20029;-84
2022/09/14 02:24:51;;;;;;;2.45;1.27;;;;;;;;;;4964407;28;20037;-85
2022/09/14 02:27:16;;;;;;;2.63;1.40;;;;;;;;;;4980801;28;20527;-85
2022/09/14 02:29:42;;;;;;;2.25;1.10;;;;;;;;;;4964271;28;20076;-84
2022/09/14 02:32:07;;;;;;;3.28;1.65;;;;;;;;;;4983858;28;20033;-84
2022/09/14 02:34:54;;;;;;;3.88;1.50;;;;;;;;;;5016024;28;20037;-85
2022/09/14 02:37:27;;;;;;;2.95;1.27;;;;;;;;;;5031734;28;20095;-85
2022/09/14 02:40:06;;;;;;;2.80;1.35;;;;;;;;;;5016656;28;20700;-84
2022/09/14 02:42:58;;;;;;;3.85;1.75;;;;;;;;;;4981059;28;20087;-85
2022/09/14 02:45:26;;;;;;;2.40;1.52;;;;;;;;;;5012455;28;20053;-86
2022/09/14 02:48:18;;;;;;;3.40;1.20;;;;;;;;;;4996488;28;20034;-86
2022/09/14 02:50:51;;;;;;;2.38;1.45;;;;;;;;;;5013962;28;20030;-86
2022/09/14 02:54:23;;;;;;;3.92;1.90;;;;;;;;;;4980620;28;20504;-87
2022/09/14 02:56:49;;;;;;;3.65;1.33;;;;;;;;;;4918583;29;20506;-87
2022/09/14 02:59:17;;;;;;;3.55;1.45;;;;;;;;;;4976377;28;20037;-86
2022/09/14 03:01:43;;;;;;;2.88;1.65;;;;;;;;;;5032452;28;20068;-86
2022/09/14 03:04:09;;;;;;;3.50;1.60;;;;;;;;;;5032385;28;20045;-86
2022/09/14 03:06:35;;;;;;;3.13;1.85;;;;;;;;;;4999230;28;20045;-86
2022/09/14 03:09:01;;;;;;;3.60;1.38;;;;;;;;;;5032473;28;20818;-86
2022/09/14 03:11:28;;;;;;;3.55;1.75;;;;;;;;;;5032275;28;20041;-86
2022/09/14 03:13:54;;;;;;;4.32;1.92;;;;;;;;;;4999763;28;20522;-87
2022/09/14 03:16:19;;;;;;;3.22;1.83;;;;;;;;;;5032013;28;20037;-87
2022/09/14 03:18:46;;;;;;;2.78;1.65;;;;;;;;;;5032179;28;20476;-87
2022/09/14 03:21:13;;;;;;;2.85;1.35;;;;;;;;;;5015731;28;20041;-87
2022/09/14 03:23:46;;;;;;;3.15;1.70;;;;;;;;;;5031738;28;20504;-87
2022/09/14 03:26:17;;;;;;;3.25;2.03;;;;;;;;;;4999816;28;20060;-87
2022/09/14 03:28:44;;;;;;;3.75;1.52;;;;;;;;;;4999701;28;20060;-86
2022/09/14 03:31:11;;;;;;;3.65;1.85;;;;;;;;;;4991173;28;20034;-87
2022/09/14 03:33:36;;;;;;;2.90;1.45;;;;;;;;;;4999272;28;20040;-87
2022/09/14 03:36:16;;;;;;;3.35;1.80;;;;;;;;;;5032056;28;20046;-87
2022/09/14 03:38:48;;;;;;;4.68;2.05;;;;;;;;;;4999880;28;20041;-88
2022/09/14 03:41:15;;;;;;;3.10;1.88;;;;;;;;;;4983160;28;20160;-87
2022/09/14 03:43:41;;;;;;;4.85;2.17;;;;;;;;;;4967144;28;20122;-87
2022/09/14 03:46:10;;;;;;;3.33;1.50;;;;;;;;;;4983036;28;20500;-87
2022/09/14 03:48:35;;;;;;;2.72;1.75;;;;;;;;;;4982986;28;20535;-87
2022/09/14 03:51:02;;;;;;;3.95;1.83;;;;;;;;;;4967196;28;20033;-87
2022/09/14 03:53:28;;;;;;;3.38;1.83;;;;;;;;;;4982874;28;20040;-87
2022/09/14 03:55:55;;;;;;;4.20;2.10;;;;;;;;;;4966694;28;20372;-87
2022/09/14 03:58:22;;;;;;;4.18;2.47;;;;;;;;;;4983156;28;20044;-87
2022/09/14 04:00:49;;;;;;;3.15;1.83;;;;;;;;;;4966899;28;20031;-87
2022/09/14 04:03:14;;;;;;;3.85;1.85;;;;;;;;;;4982785;28;20091;-87
2022/09/14 04:05:39;;;;;;;4.60;2.25;;;;;;;;;;4966708;28;20044;-87
2022/09/14 04:08:06;;;;;;;4.00;2.03;;;;;;;;;;4966218;28;20499;-87
2022/09/14 04:10:32;;;;;;;3.53;1.98;;;;;;;;;;4982787;28;20042;-88
2022/09/14 04:12:58;;;;;;;3.08;2.00;;;;;;;;;;4966098;28;20044;-86
2022/09/14 04:15:25;;;;;;;4.78;2.40;;;;;;;;;;4966232;28;20036;-87
2022/09/14 04:17:52;;;;;;;3.58;1.92;;;;;;;;;;4982221;28;20045;-88
2022/09/14 04:20:19;;;;;;;3.40;1.98;;;;;;;;;;4966365;28;20057;-87
2022/09/14 04:22:44;;;;;;;6.00;2.40;;;;;;;;;;4983411;28;20033;-86
2022/09/14 04:25:10;;;;;;;4.50;2.42;;;;;;;;;;4998810;28;20487;-86
2022/09/14 04:27:36;;;;;;;2.97;2.17;;;;;;;;;;4998521;28;20029;-87
2022/09/14 04:30:02;;;;;;;3.05;1.80;;;;;;;;;;4982065;28;20048;-87
2022/09/14 04:32:27;;;;;;;4.45;2.55;;;;;;;;;;4982364;28;20068;-88
2022/09/14 04:34:55;;;;;;;4.25;2.40;;;;;;;;;;4998997;28;20036;-88
2022/09/14 04:37:22;;;;;;;4.97;3.20;;;;;;;;;;4998689;28;20030;-88
2022/09/14 04:39:49;;;;;;;5.03;2.80;;;;;;;;;;4998673;28;20507;-87
2022/09/14 04:42:17;;;;;;;3.72;2.15;;;;;;;;;;4998320;28;20040;-87
2022/09/14 04:44:42;;;;;;;3.75;2.08;;;;;;;;;;5013910;28;20050;-86
2022/09/14 04:47:08;;;;;;;3.70;2.25;;;;;;;;;;5014097;28;20068;-86
2022/09/14 04:49:36;;;;;;;4.18;2.50;;;;;;;;;;5014295;28;20033;-87
2022/09/14 04:52:02;;;;;;;3.80;2.17;;;;;;;;;;4998108;28;20121;-86
2022/09/14 04:54:27;;;;;;;4.22;2.50;;;;;;;;;;5014512;28;20148;-86
2022/09/14 04:56:55;;;;;;;3.80;2.00;;;;;;;;;;5014103;28;20038;-86
2022/09/14 04:59:20;;;;;;;3.63;2.20;;;;;;;;;;4999172;28;20124;-89
2022/09/14 05:01:47;;;;;;;2.38;1.38;;;;;;;;;;5002445;28;20183;-89
2022/09/14 05:04:15;;;;;;;3.28;2.30;;;;;;;;;;5002209;28;20446;-88
2022/09/14 05:06:43;;;;;;;4.15;2.08;;;;;;;;;;5002625;28;20038;-87
2022/09/14 05:09:14;;;;;;;3.72;1.70;;;;;;;;;;5002186;28;20044;-88
2022/09/14 05:11:43;;;;;;;3.15;1.77;;;;;;;;;;5002492;28;20040;-89
2022/09/14 05:14:12;;;;;;;2.47;1.63;;;;;;;;;;5002428;28;20037;-89
2022/09/14 05:16:38;;;;;;;3.65;1.25;;;;;;;;;;5002474;28;20116;-90
2022/09/14 05:19:05;;;;;;;3.63;1.50;;;;;;;;;;5002384;28;20033;-88
2022/09/14 05:21:33;;;;;;;3.13;1.77;;;;;;;;;;4986132;28;20499;-90
2022/09/14 05:24:02;;;;;;;2.65;1.58;;;;;;;;;;5001966;28;20061;-87
2022/09/14 05:26:30;;;;;;;6.82;1.70;;;;;;;;;;4985461;28;20056;-86
2022/09/14 05:28:56;;;;;;;6.72;1.92;;;;;;;;;;5001793;28;20033;-87
2022/09/14 05:31:26;;;;;;;8.25;1.80;;;;;;;;;;4985766;28;20042;-90
2022/09/14 05:33:52;;;;;;;9.52;1.92;;;;;;;;;;5002291;28;20037;-91
2022/09/14 05:36:21;;;;;;;7.15;2.05;;;;;;;;;;5002213;28;20034;-92
2022/09/14 05:38:48;;;;;;;7.45;1.98;;;;;;;;;;4982947;28;20052;-90
2022/09/14 05:41:17;;;;;;;8.27;2.05;;;;;;;;;;4982290;28;20026;-91
2022/09/14 05:43:44;;;;;;;7.15;1.70;;;;;;;;;;4982582;28;20033;-91
2022/09/14 05:46:12;;;;;;;5.63;1.67;;;;;;;;;;4982661;28;20045;-90
2022/09/14 05:48:38;;;;;;;6.25;1.67;;;;;;;;;;4982617;28;20034;-91
2022/09/14 05:51:15;;;;;;;7.85;1.90;;;;;;;;;;4982515;28;20030;-91
2022/09/14 05:53:45;;;;;;;6.10;1.80;;;;;;;;;;4982682;28;20092;-91
2022/09/14 05:56:12;;;;;;;9.05;1.98;;;;;;;;;;4997968;28;20038;-87
2022/09/14 05:58:41;;;;;;;8.57;2.50;;;;;;;;;;4981130;28;20047;-86
2022/09/14 06:01:14;;;;;;;8.20;1.92;;;;;;;;;;4981315;28;20426;-87
2022/09/14 06:03:40;;;;;;;6.78;1.40;;;;;;;;;;4981072;28;20046;-86
2022/09/14 06:06:07;;;;;;;4.80;1.95;;;;;;;;;;4996790;28;20111;-86
2022/09/14 06:08:33;;;;;;;7.75;1.98;;;;;;;;;;4996775;28;20038;-86
2022/09/14 06:11:14;;;;;;;6.85;1.95;;;;;;;;;;4995303;28;20034;-85
2022/09/14 06:13:40;;;;;;;12.48;2.15;;;;;;;;;;4981263;28;20038;-87
2022/09/14 06:16:07;;;;;;;9.27;2.90;;;;;;;;;;4997066;28;20088;-85
2022/09/14 06:18:34;;;;;;;6.55;1.85;;;;;;;;;;4996913;28;20045;-85
2022/09/14 06:21:00;;;;;;;6.50;1.95;;;;;;;;;;4980194;28;20030;-86
2022/09/14 06:23:27;;;;;;;8.50;2.35;;;;;;;;;;4990084;28;20500;-86
2022/09/14 06:25:56;;;;;;;8.57;2.20;;;;;;;;;;5000275;28;20064;-87
2022/09/14 06:28:24;;;;;;;8.05;1.63;;;;;;;;;;4983869;28;20121;-86
2022/09/14 06:30:50;;;;;;;8.27;2.00;;;;;;;;;;4991015;28;20034;-87
2022/09/14 06:33:17;;;;;;;12.20;2.65;;;;;;;;;;4980978;28;20105;-89
2022/09/14 06:35:53;;;;;;;7.75;1.73;;;;;;;;;;4964182;28;20029;-85
2022/09/14 06:38:19;;;;;;;7.25;1.83;;;;;;;;;;5015733;28;20033;-86
2022/09/14 06:40:55;;;;;;;8.40;2.03;;;;;;;;;;4981995;28;20033;-86
2022/09/14 06:43:22;;;;;;;6.05;2.03;;;;;;;;;;4984215;28;20088;-85
2022/09/14 06:46:01;;;;;;;8.57;1.98;;;;;;;;;;4967556;28;20120;-88
2022/09/14 06:48:27;;;;;;;7.10;2.22;;;;;;;;;;4982942;28;20044;-87
2022/09/14 06:50:54;;;;;;;6.45;1.58;;;;;;;;;;4983397;28;20033;-87
2022/09/14 06:53:19;;;;;;;7.75;1.92;;;;;;;;;;4966870;28;20038;-87
2022/09/14 06:55:45;;;;;;;4.75;1.45;;;;;;;;;;4967833;28;20036;-88
2022/09/14 06:58:12;;;;;;;8.02;1.98;;;;;;;;;;4984317;28;20080;-87
2022/09/14 07:00:38;;;;;;;3.58;1.40;;;;;;;;;;4984932;28;20579;-88
2022/09/14 07:03:06;;;;;;;7.28;2.05;;;;;;;;;;4985671;28;20045;-87
2022/09/14 07:05:33;;;;;;;4.63;1.95;;;;;;;;;;4983799;28;20044;-86
2022/09/14 07:08:00;;;;;;;8.73;1.73;;;;;;;;;;4967135;28;20400;-86
2022/09/14 07:10:27;;;;;;;5.15;1.50;;;;;;;;;;4967315;28;20400;-86
2022/09/14 07:12:53;;;;;;;3.20;1.30;;;;;;;;;;4999904;28;20029;-85
2022/09/14 07:15:20;;;;;;;5.43;1.60;;;;;;;;;;4983997;28;20033;-85
2022/09/14 07:17:46;;;;;;;3.58;1.52;;;;;;;;;;4983807;28;20551;-85
2022/09/14 07:20:11;;;;;;;4.20;1.55;;;;;;;;;;4967396;28;20124;-84
2022/09/14 07:22:37;;;;;;;3.45;1.73;;;;;;;;;;4980738;28;20420;-84
2022/09/14 07:25:02;;;;;;;6.60;2.40;;;;;;;;;;4980085;28;20117;-85
2022/09/14 07:27:28;;;;;;;5.38;1.77;;;;;;;;;;4964100;28;20034;-85
2022/09/14 07:29:54;;;;;;;2.47;1.52;;;;;;;;;;4964405;28;20034;-85
2022/09/14 07:32:20;;;;;;;6.40;2.20;;;;;;;;;;4999022;28;20168;-85
2022/09/14 07:34:45;;;;;;;6.55;1.65;;;;;;;;;;4998440;28;20120;-84
2022/09/14 07:37:12;;;;;;;5.32;1.80;;;;;;;;;;5014279;28;20556;-84
2022/09/14 07:39:38;;;;;;;5.80;2.45;;;;;;;;;;4998682;28;20030;-86
2022/09/14 07:42:04;;;;;;;5.85;2.72;;;;;;;;;;4998641;28;20033;-86
2022/09/14 07:44:29;;;;;;;8.75;3.08;;;;;;;;;;4999153;28;20141;-86
2022/09/14 07:46:56;;;;;;;4.78;3.03;;;;;;;;;;5015131;28;20111;-84
2022/09/14 07:49:21;;;;;;;5.75;3.78;;;;;;;;;;4998514;28;20037;-85
2022/09/14 07:51:47;;;;;;;4.90;3.25;;;;;;;;;;4997422;28;20410;-83
2022/09/14 07:54:15;;;;;;;7.40;4.43;;;;;;;;;;4982333;28;20087;-83
2022/09/14 07:56:43;;;;;;;9.02;4.10;;;;;;;;;;4999097;28;20041;-84
2022/09/14 07:59:10;;;;;;;6.10;3.83;;;;;;;;;;4998489;28;20087;-84
2022/09/14 08:01:36;;;;;;;5.50;3.92;;;;;;;;;;4981468;28;20499;-85
2022/09/14 08:04:02;;;;;;;4.75;3.17;;;;;;;;;;4998536;28;20037;-84
2022/09/14 08:06:28;;;;;;;7.30;3.97;;;;;;;;;;4998026;28;20396;-85
2022/09/14 08:08:54;;;;;;;6.22;4.10;;;;;;;;;;4999591;28;20033;-87
2022/09/14 08:11:19;;;;;;;6.72;3.65;;;;;;;;;;4999172;28;20033;-87
2022/09/14 08:13:48;;;;;;;5.93;3.80;;;;;;;;;;5015427;28;20488;-87
2022/09/14 08:16:15;;;;;;;6.03;3.58;;;;;;;;;;4999132;28;20056;-86
2022/09/14 08:18:41;;;;;;;4.50;2.83;;;;;;;;;;4998709;28;20116;-85
2022/09/14 08:21:14;;;;;;;6.40;3.10;;;;;;;;;;5014372;28;20412;-88
2022/09/14 08:23:41;;;;;;;5.80;3.40;;;;;;;;;;4999198;28;20025;-89
2022/09/14 08:26:09;;;;;;;6.22;3.20;;;;;;;;;;4998756;28;20124;-86
2022/09/14 08:28:37;;;;;;;6.25;2.90;;;;;;;;;;4997854;28;20111;-87
2022/09/14 08:31:20;;;;;;;5.88;2.55;;;;;;;;;;5016007;28;20057;-92
2022/09/14 08:33:49;;;;;;;8.32;3.58;;;;;;;;;;4999612;28;20044;-88
2022/09/14 08:36:16;;;;;;;6.95;3.08;;;;;;;;;;4997917;28;20057;-85
2022/09/14 08:38:42;;;;;;;5.47;2.97;;;;;;;;;;4998249;28;20504;-89
2022/09/14 08:41:40;;;;;;;7.45;2.97;;;;;;;;;;4983585;28;20132;-89
2022/09/14 08:44:26;;;;;;;8.25;2.65;;;;;;;;;;5000852;28;20635;-89
2022/09/14 08:47:08;;;;;;;4.30;2.58;;;;;;;;;;4998234;28;20045;-90
2022/09/14 08:49:37;;;;;;;6.45;2.65;;;;;;;;;;4983084;28;20056;-88
2022/09/14 08:52:03;;;;;;;11.50;2.78;;;;;;;;;;5014599;28;20060;-87
2022/09/14 08:54:32;;;;;;;6.35;3.03;;;;;;;;;;4967066;28;20061;-89
2022/09/14 08:57:13;;;;;;;6.40;2.35;;;;;;;;;;4983306;28;20033;-87
2022/09/14 08:59:58;;;;;;;7.85;2.80;;;;;;;;;;4984589;28;20049;-88
2022/09/14 09:02:51;;;;;;;5.32;2.38;;;;;;;;;;4980184;28;20084;-87
2022/09/14 09:05:23;;;;;;;;;;;;;;;;;;4998121;28;20041;-92
2022/09/14 09:08:08;;;;;;;7.55;2.63;;;;;;;;;;4995470;28;19937;-93
2022/09/14 09:10:34;;;;;;;4.97;2.30;;;;;;;;;;4995892;28;20125;-93
2022/09/14 09:13:00;;;;;;;4.53;2.33;;;;;;;;;;4963524;28;20038;-93
2022/09/14 09:15:42;;;;;;;5.03;2.42;;;;;;;;;;4995529;28;20057;-92
2022/09/14 09:18:17;;;;;;;4.80;2.25;;;;;;;;;;5011251;28;20036;-91
2022/09/14 09:20:51;;;;;;;6.07;2.67;;;;;;;;;;4995388;28;20038;-91
2022/09/14 09:23:21;;;;;;;7.95;2.60;;;;;;;;;;4978867;28;20119;-91
2022/09/14 09:26:09;;;;;;;4.07;2.42;;;;;;;;;;4979034;28;20156;-89
2022/09/14 09:28:42;;;;;;;5.40;2.63;;;;;;;;;;4995622;28;20511;-88
2022/09/14 09:31:10;;;;;;;6.35;2.22;;;;;;;;;;4990629;28;20034;-89
2022/09/14 09:33:36;;;;;;;6.15;2.13;;;;;;;;;;5015720;28;20041;-89
2022/09/14 09:36:03;;;;;;;3.80;2.15;;;;;;;;;;5016898;28;20048;-88
2022/09/14 09:38:29;;;;;;;6.35;2.10;;;;;;;;;;5000068;28;20033;-87
2022/09/14 09:41:21;;;;;;;8.80;2.47;;;;;;;;;;4967049;28;20033;-88
2022/09/14 09:44:05;;;;;;;11.20;2.55;;;;;;;;;;5003109;28;20052;-89
2022/09/14 09:46:38;;;;;;;5.63;2.00;;;;;;;;;;4986665;28;20056;-91
2022/09/14 09:49:25;;;;;;;4.70;2.10;;;;;;;;;;4971382;28;20030;-91
2022/09/14 09:51:53;;;;;;;5.45;2.38;;;;;;;;;;4988371;28;20041;-91
2022/09/14 09:54:29;;;;;;;3.80;1.83;;;;;;;;;;4985734;28;20037;-91
2022/09/14 09:56:59;;;;;;;6.28;2.35;;;;;;;;;;4969885;28;20037;-91
2022/09/14 09:59:27;;;;;;;4.00;2.33;;;;;;;;;;5002197;28;20038;-91
2022/09/14 10:02:18;;;;;;;4.80;2.08;;;;;;;;;;4989444;28;20048;-91
2022/09/14 10:05:06;;;;;;;4.28;1.90;;;;;;;;;;4999203;28;20026;-91
2022/09/14 10:07:53;;;;;;;3.50;2.35;;;;;;;;;;4982623;28;20072;-90
2022/09/14 10:10:38;;;;;;;5.10;2.08;;;;;;;;;;5013032;28;20045;-90
2022/09/14 10:13:05;;;;;;;5.28;1.85;;;;;;;;;;4983344;28;20042;-90
2022/09/14 10:15:35;;;;;;;4.00;1.75;;;;;;;;;;4982383;28;20087;-89
2022/09/14 10:18:10;;;;;;;3.67;1.52;;;;;;;;;;4981933;28;20034;-90
2022/09/14 10:20:38;;;;;;;5.60;1.83;;;;;;;;;;5014092;28;20045;-89
2022/09/14 10:23:19;;;;;;;3.33;1.95;;;;;;;;;;4981783;28;20455;-89
2022/09/14 10:26:13;;;;;;;4.10;2.10;;;;;;;;;;5013764;28;20061;-87
2022/09/14 10:28:43;;;;;;;3.97;1.88;;;;;;;;;;5000112;28;20404;-86
2022/09/14 10:33:52;;;;;;;3.67;1.95;;;;;;;;;;5136443;22;20053;-87
2022/09/14 10:36:36;;;;;;;6.75;2.13;;;;;;;;;;5019457;28;20589;-86
2022/09/14 10:39:15;;;;;;;6.85;2.30;;;;;;;;;;5018708;28;20063;-88
2022/09/14 10:41:44;;;;;;;4.13;1.60;;;;;;;;;;5006677;28;20511;-88
2022/09/14 10:44:31;;;;;;;5.10;2.15;;;;;;;;;;5039012;28;20029;-88
2022/09/14 10:47:08;;;;;;;4.78;2.35;;;;;;;;;;5037973;28;20139;-87
2022/09/14 10:49:46;;;;;;;7.13;2.60;;;;;;;;;;5055031;28;20040;-87
2022/09/14 10:52:20;;;;;;;5.30;2.35;;;;;;;;;;5022190;28;20032;-87
2022/09/14 10:55:05;;;;;;;8.23;2.53;;;;;;;;;;5021323;28;20098;-87
2022/09/14 10:57:55;;;;;;;8.70;2.60;;;;;;;;;;5040216;28;20044;-88
2022/09/14 11:00:21;;;;;;;7.60;2.58;;;;;;;;;;5008473;28;20085;-88
2022/09/14 11:03:02;;;;;;;7.43;2.83;;;;;;;;;;5019286;28;20049;-88
2022/09/14 11:05:50;;;;;;;7.05;3.20;;;;;;;;;;5019335;28;20037;-88
2022/09/14 11:08:38;;;;;;;12.13;2.63;;;;;;;;;;5004467;28;20412;-88
2022/09/14 11:11:12;;;;;;;9.15;2.80;;;;;;;;;;5019202;28;20029;-88
2022/09/14 11:13:56;;;;;;;10.98;3.72;;;;;;;;;;5019219;28;20167;-87
2022/09/14 11:16:41;;;;;;;7.47;2.72;;;;;;;;;;5019404;28;20029;-87
2022/09/14 11:19:18;;;;;;;7.22;2.72;;;;;;;;;;5035629;28;20469;-88
2022/09/14 11:22:06;;;;;;;13.63;2.78;;;;;;;;;;5020032;28;20040;-88
2022/09/14 11:25:10;;;;;;;6.85;2.25;;;;;;;;;;5018746;28;20033;-87
2022/09/14 11:27:42;;;;;;;8.45;2.38;;;;;;;;;;5021269;28;20094;-87
2022/09/14 11:30:16;;;;;;;9.35;2.38;;;;;;;;;;5006308;28;20051;-87
2022/09/14 11:33:03;;;;;;;8.07;2.60;;;;;;;;;;5022095;28;20071;-87
2022/09/14 11:35:36;;;;;;;8.88;2.63;;;;;;;;;;5048477;28;20060;-87
2022/09/14 11:38:11;;;;;;;6.32;2.53;;;;;;;;;;5028370;28;20415;-87
2022/09/14 11:40:42;;;;;;;4.38;2.20;;;;;;;;;;5018877;28;20033;-86
2022/09/14 11:43:15;;;;;;;11.73;2.17;;;;;;;;;;5019270;28;20043;-85
2022/09/14 11:45:45;;;;;;;9.48;2.30;;;;;;;;;;5019528;28;20037;-87
2022/09/14 11:48:19;;;;;;;12.57;2.40;;;;;;;;;;5002189;28;20025;-88
2022/09/14 11:50:44;;;;;;;6.43;1.73;;;;;;;;;;5019475;28;20411;-86
2022/09/14 11:53:14;;;;;;;10.18;2.53;;;;;;;;;;5018452;28;20111;-89
2022/09/14 11:55:43;;;;;;;8.60;2.38;;;;;;;;;;5018673;28;20029;-87
2022/09/14 11:58:22;;;;;;;10.00;2.65;;;;;;;;;;5002339;28;20025;-88
2022/09/14 12:00:48;;;;;;;8.55;2.38;;;;;;;;;;5014420;28;20044;-86
2022/09/14 12:03:18;;;;;;;15.18;2.80;;;;;;;;;;5037081;28;20036;-88
2022/09/14 12:05:44;;;;;;;9.57;2.20;;;;;;;;;;5019212;28;20494;-86
2022/09/14 12:08:26;;;;;;;11.43;2.97;;;;;;;;;;5018979;28;20037;-87
2022/09/14 12:11:04;;;;;;;15.35;2.88;;;;;;;;;;5020884;28;20086;-86
2022/09/14 12:13:30;;;;;;;7.18;2.35;;;;;;;;;;5020631;28;20029;-85
2022/09/14 12:16:06;;;;;;;14.75;3.03;;;;;;;;;;5004782;28;20089;-86
2022/09/14 12:18:35;;;;;;;9.43;2.58;;;;;;;;;;5000870;28;20202;-85
2022/09/14 12:21:06;;;;;;;6.93;2.90;;;;;;;;;;5001337;28;20139;-87
2022/09/14 12:23:31;;;;;;;7.63;2.13;;;;;;;;;;4999707;28;20491;-86
2022/09/14 12:26:03;;;;;;;6.75;2.40;;;;;;;;;;5049192;28;20043;-85
2022/09/14 12:28:39;;;;;;;7.22;2.30;;;;;;;;;;5050416;28;20449;-84
2022/09/14 12:31:04;;;;;;;9.88;2.38;;;;;;;;;;5053813;28;20028;-85
2022/09/14 12:33:30;;;;;;;7.13;2.63;;;;;;;;;;5035856;28;20487;-84
2022/09/14 12:36:05;;;;;;;8.02;1.73;;;;;;;;;;5054046;28;20056;-86
2022/09/14 12:38:30;;;;;;;6.75;1.95;;;;;;;;;;5004680;28;20095;-85
2022/09/14 12:41:08;;;;;;;5.32;1.73;;;;;;;;;;5054217;28;20455;-85
2022/09/14 12:43:34;;;;;;;4.38;1.92;;;;;;;;;;5021912;28;20075;-85
2022/09/14 12:45:59;;;;;;;6.15;2.00;;;;;;;;;;5037476;28;20033;-84
2022/09/14 12:48:43;;;;;;;6.80;2.15;;;;;;;;;;5037044;28;20028;-85
2022/09/14 12:51:41;;;;;;;6.90;1.73;;;;;;;;;;5037194;28;20078;-84
2022/09/14 12:54:17;;;;;;;7.35;2.65;;;;;;;;;;5036780;28;20407;-87
2022/09/14 12:56:53;;;;;;;6.30;1.85;;;;;;;;;;5037072;28;20403;-85
2022/09/14 12:59:43;;;;;;;5.47;2.13;;;;;;;;;;5036781;28;20043;-86
2022/09/14 13:02:32;;;;;;;5.38;1.85;;;;;;;;;;5034287;28;20036;-88
2022/09/14 13:04:58;;;;;;;6.00;2.10;;;;;;;;;;5018882;28;20037;-89
2022/09/14 13:07:32;;;;;;;4.57;1.65;;;;;;;;;;5002469;28;20047;-88
2022/09/14 13:09:57;;;;;;;3.83;2.20;;;;;;;;;;5003366;28;20403;-86
2022/09/14 13:12:30;;;;;;;6.38;2.20;;;;;;;;;;5005687;28;20569;-88
2022/09/14 13:14:59;;;;;;;5.90;1.88;;;;;;;;;;5023360;28;20112;-90
2022/09/14 13:17:24;;;;;;;6.70;2.20;;;;;;;;;;5005748;28;20044;-84
2022/09/14 13:20:03;;;;;;;8.05;2.22;;;;;;;;;;5004656;28;20068;-87
2022/09/14 13:22:31;;;;;;;10.63;2.10;;;;;;;;;;5011553;28;20033;-89
2022/09/14 13:24:58;;;;;;;3.80;1.50;;;;;;;;;;5010715;28;20036;-84
2022/09/14 13:27:25;;;;;;;7.82;1.88;;;;;;;;;;5008802;28;20044;-88
2022/09/14 13:30:01;;;;;;;4.40;1.92;;;;;;;;;;5008303;28;20025;-86
2022/09/14 13:32:26;;;;;;;6.28;1.67;;;;;;;;;;5043917;28;20044;-87
2022/09/14 13:34:52;;;;;;;9.85;1.90;;;;;;;;;;5013872;28;20556;-87
2022/09/14 13:37:18;;;;;;;11.23;1.92;;;;;;;;;;5011144;28;20048;-87
2022/09/14 13:39:44;;;;;;;12.43;2.28;;;;;;;;;;5007808;28;20111;-88
2022/09/14 13:42:10;;;;;;;6.22;1.30;;;;;;;;;;5019082;28;20064;-87
2022/09/14 13:44:45;;;;;;;8.60;1.95;;;;;;;;;;5011556;28;20036;-87
2022/09/14 13:47:13;;;;;;;9.00;1.88;;;;;;;;;;5028347;28;20037;-86
2022/09/14 13:49:39;;;;;;;5.57;1.60;;;;;;;;;;5011088;28;20097;-85
2022/09/14 13:52:18;;;;;;;7.13;1.52;;;;;;;;;;5011261;28;20065;-85
2022/09/14 13:54:44;;;;;;;5.82;1.60;;;;;;;;;;5038719;28;20040;-84
2022/09/14 13:57:14;;;;;;;8.07;1.60;;;;;;;;;;5030655;28;20126;-87
2022/09/14 14:00:18;;;;;;;7.43;2.60;;;;;;;;;;5013370;28;20379;-85
2022/09/14 14:02:50;;;;;;;9.10;1.42;;;;;;;;;;5042553;28;20041;-86
2022/09/14 14:05:20;;;;;;;6.40;1.77;;;;;;;;;;5047042;28;20050;-86
2022/09/14 14:07:45;;;;;;;6.13;1.40;;;;;;;;;;5044705;28;20036;-83
2022/09/14 14:10:32;;;;;;;5.90;1.50;;;;;;;;;;5029607;28;20039;-87
2022/09/14 14:13:01;;;;;;;9.90;1.60;;;;;;;;;;5042900;28;20056;-87
2022/09/14 14:15:35;;;;;;;3.00;1.13;;;;;;;;;;5026627;28;20110;-85
2022/09/14 14:18:09;;;;;;;5.20;1.13;;;;;;;;;;5026474;28;20093;-86
2022/09/14 14:20:35;;;;;;;6.47;1.77;;;;;;;;;;5027453;28;20502;-85
2022/09/14 14:23:22;;;;;;;8.07;1.42;;;;;;;;;;5027156;28;20032;-86
2022/09/14 14:25:55;;;;;;;11.80;1.83;;;;;;;;;;5044464;28;20544;-86
2022/09/14 14:28:25;;;;;;;4.50;1.33;;;;;;;;;;5029161;28;20056;-87
2022/09/14 14:30:52;;;;;;;5.30;0.90;;;;;;;;;;5041599;28;20040;-86
2022/09/14 14:33:18;;;;;;;9.75;1.15;;;;;;;;;;5023044;28;20052;-90
2022/09/14 14:35:43;;;;;;;13.18;1.92;;;;;;;;;;5025850;28;20029;-87
2022/09/14 14:38:09;;;;;;;4.38;1.17;;;;;;;;;;5023408;28;20063;-88
2022/09/14 14:40:35;;;;;;;6.38;1.33;;;;;;;;;;5013668;28;20506;-90
2022/09/14 14:43:02;;;;;;;7.70;1.58;;;;;;;;;;5012560;28;20029;-88
2022/09/14 14:45:30;;;;;;;4.35;0.93;;;;;;;;;;5015582;28;20033;-86
2022/09/14 14:47:56;;;;;;;8.02;1.80;;;;;;;;;;5015606;28;20036;-89
2022/09/14 14:50:28;;;;;;;7.38;1.80;;;;;;;;;;5031161;28;20089;-89
2022/09/14 14:52:55;;;;;;;;;;;;;;;;;;5011992;28;20433;-89
2022/09/14 14:55:21;;;;;;;8.15;1.10;;;;;;;;;;5044668;28;19913;-87
2022/09/14 14:57:47;;;;;;;5.35;1.08;;;;;;;;;;5011268;28;20021;-87
2022/09/14 15:00:15;;;;;;;5.63;1.40;;;;;;;;;;5027239;28;20058;-89
2022/09/14 15:02:41;;;;;;;5.53;1.52;;;;;;;;;;5010539;28;20131;-89
2022/09/14 15:05:07;;;;;;;8.15;1.77;;;;;;;;;;5007027;28;20119;-85
2022/09/14 15:07:32;;;;;;;11.70;1.65;;;;;;;;;;5039031;28;20032;-86
2022/09/14 15:09:57;;;;;;;9.00;1.58;;;;;;;;;;5022485;28;20495;-88